Time;durP1;ratioP1;P1;durP2;ratioP2;P2;SDS_P1;SDS_P2;PMS_P1;PMS_P2;Temp;Humidity;BMP_temperature;BMP_pressure;BME280_temperature;BME280_humidity;BME280_pressure;Samples;Min_cycle;Max_cycle;Signal;HPM_P1;HPM_P2
2024/01/17 00:00:48;;;;;;;;;;;;;;;9.27;55.13;100202.63;5071741;28;19913;-80
2024/01/17 00:03:41;;;;;;;;;;;;;;;9.21;55.31;100203.91;5074842;28;19916;-79
2024/01/17 00:06:30;;;;;;;;;;;;;;;9.16;55.12;100199.44;5071525;28;19920;-80
2024/01/17 00:09:22;;;;;;;;;;;;;;;9.22;55.21;100200.88;5076516;28;20471;-80
2024/01/17 00:12:12;;;;;;;;;;;;;;;9.36;54.66;100203.44;5074726;28;19912;-79
2024/01/17 00:15:04;;;;;;;;;;;;;;;9.20;53.82;100199.59;5072097;28;19912;-79
2024/01/17 00:17:56;;;;;;;;;;;;;;;9.05;53.77;100190.00;5076180;28;19912;-80
2024/01/17 00:20:47;;;;;;;;;;;;;;;9.15;52.54;100183.47;5073578;28;19916;-80
2024/01/17 00:23:39;;;;;;;;;;;;;;;9.13;52.54;100175.69;5070806;28;19916;-80
2024/01/17 00:26:31;;;;;;;;;;;;;;;9.07;51.46;100171.53;5071589;28;19912;-80
2024/01/17 00:29:23;;;;;;;;;;;;;;;9.10;49.55;100160.03;5072934;28;19916;-81
2024/01/17 00:32:15;;;;;;;;;;;;;;;9.20;48.44;100156.19;5072774;28;19913;-81
2024/01/17 00:35:07;;;;;;;;;;;;;;;9.24;48.25;100154.47;5066314;28;19912;-80
2024/01/17 00:38:00;;;;;;;;;;;;;;;9.31;51.44;100139.28;5072184;28;19913;-81
2024/01/17 00:40:52;;;;;;;;;;;;;;;9.17;53.87;100148.69;5060398;28;19916;-79
2024/01/17 00:43:44;;;;;;;;;;;;;;;9.18;51.68;100142.97;5073225;28;20372;-80
2024/01/17 00:46:36;;;;;;;;;;;;;;;9.31;50.57;100127.63;5071425;28;20284;-80
2024/01/17 00:49:28;;;;;;;;;;;;;;;9.15;52.08;100135.44;5074634;28;19913;-80
2024/01/17 00:52:19;;;;;;;;;;;;;;;8.97;53.43;100136.59;5072491;28;19912;-80
2024/01/17 00:55:11;;;;;;;;;;;;;;;8.77;53.47;100137.19;5074279;28;19913;-80
2024/01/17 00:58:01;;;;;;;;;;;;;;;8.83;52.59;100144.88;5073939;28;19913;-80
2024/01/17 01:00:58;;;;;;;;;;;;;;;8.82;52.13;100159.53;5071379;28;19913;-80
2024/01/17 01:03:47;;;;;;;;;;;;;;;9.02;52.33;100163.53;5075068;28;19916;-80
2024/01/17 01:06:37;;;;;;;;;;;;;;;8.98;52.43;100157.97;5072919;28;19916;-79
2024/01/17 01:09:28;;;;;;;;;;;;;;;9.02;51.73;100141.84;5070772;28;19916;-79
2024/01/17 01:12:18;;;;;;;;;;;;;;;9.29;51.19;100138.81;5074863;28;19931;-79
2024/01/17 01:15:07;;;;;;;;;;;;;;;9.41;50.46;100149.81;5072095;28;19913;-79
2024/01/17 01:17:59;;;;;;;;;;;;;;;9.31;50.76;100117.56;5076345;28;19928;-81
2024/01/17 01:20:51;;;;;;;;;;;;;;;9.39;50.61;100127.63;5074227;28;19912;-80
2024/01/17 01:23:43;;;;;;;;;;;;;;;9.40;49.48;100131.13;5071692;28;19916;-80
2024/01/17 01:26:35;;;;;;;;;;;;;;;9.39;50.75;100124.94;5075668;28;19912;-79
2024/01/17 01:29:27;;;;;;;;;;;;;;;9.23;51.04;100131.16;5073257;28;19912;-80
2024/01/17 01:32:22;;;;;;;;;;;;;;;9.14;51.41;100117.59;5071540;28;19921;-79
2024/01/17 01:35:14;;;;;;;;;;;;;;;8.87;51.76;100107.06;5076160;28;19917;-79
2024/01/17 01:38:06;;;;;;;;;;;;;;;9.03;52.07;100116.31;5076241;28;20388;-79
2024/01/17 01:40:58;;;;;;;;;;;;;;;9.12;52.26;100111.69;5079595;28;20289;-79
2024/01/17 01:43:48;;;;;;;;;;;;;;;8.97;52.60;100102.13;5077711;28;20120;-80
2024/01/17 01:46:39;;;;;;;;;;;;;;;9.03;52.38;100094.63;5075708;28;20395;-79
2024/01/17 01:49:32;;;;;;;;;;;;;;;9.06;52.42;100091.28;5079050;28;20288;-80
2024/01/17 01:52:24;;;;;;;;;;;;;;;9.04;53.57;100087.28;5076411;28;19912;-81
2024/01/17 01:55:16;;;;;;;;;;;;;;;8.98;52.94;100089.38;5074026;28;19917;-80
2024/01/17 01:58:08;;;;;;;;;;;;;;;8.78;53.88;100084.59;5078001;28;19916;-79
2024/01/17 02:01:00;;;;;;;;;;;;;;;8.78;53.33;100092.72;5075584;28;19913;-79
2024/01/17 02:03:52;;;;;;;;;;;;;;;8.77;53.72;100081.06;5058642;28;19917;-80
2024/01/17 02:06:44;;;;;;;;;;;;;;;8.87;52.68;100078.03;5056523;28;20296;-79
2024/01/17 02:09:33;;;;;;;;;;;;;;;8.81;52.13;100095.59;5054609;28;19916;-78
2024/01/17 02:12:26;;;;;;;;;;;;;;;9.01;51.13;100088.72;5058473;28;19916;-79
2024/01/17 02:15:18;;;;;;;;;;;;;;;9.07;52.55;100100.22;5055890;28;19913;-80
2024/01/17 02:18:07;;;;;;;;;;;;;;;8.96;53.21;100097.03;5054009;28;19912;-79
2024/01/17 02:20:59;;;;;;;;;;;;;;;8.92;52.66;100080.59;5057745;28;20281;-80
2024/01/17 02:23:55;;;;;;;;;;;;;;;8.84;50.47;100075.16;5061650;28;19920;-81
2024/01/17 02:26:47;;;;;;;;;;;;;;;8.72;52.38;100077.72;5064746;28;19916;-80
2024/01/17 02:29:38;;;;;;;;;;;;;;;8.71;51.04;100068.00;5063537;28;19912;-80
2024/01/17 02:32:31;;;;;;;;;;;;;;;8.85;51.17;100082.97;5067636;28;19912;-79
2024/01/17 02:35:20;;;;;;;;;;;;;;;9.00;51.20;100081.69;5068355;28;19912;-80
2024/01/17 02:38:09;;;;;;;;;;;;;;;8.82;50.85;100066.56;5064441;28;19913;-79
2024/01/17 02:41:01;;;;;;;;;;;;;;;9.01;49.86;100067.03;5053600;28;19916;-79
2024/01/17 02:43:51;;;;;;;;;;;;;;;8.85;51.56;100066.72;5069689;28;20396;-80
2024/01/17 02:46:43;;;;;;;;;;;;;;;8.88;51.84;100070.72;5059984;28;19912;-80
2024/01/17 02:49:35;;;;;;;;;;;;;;;8.88;51.77;100057.97;5069033;28;19913;-79
2024/01/17 02:52:24;;;;;;;;;;;;;;;8.84;52.77;100058.88;5062074;28;19916;-80
2024/01/17 02:55:16;;;;;;;;;;;;;;;8.74;54.46;100070.84;5060892;28;19912;-79
2024/01/17 02:58:09;;;;;;;;;;;;;;;8.90;54.99;100058.41;5067716;28;19912;-79
2024/01/17 03:01:01;;;;;;;;;;;;;;;8.92;55.72;100055.41;5062958;28;20369;-79
2024/01/17 03:03:53;;;;;;;;;;;;;;;8.98;55.40;100063.06;5064145;28;20376;-79
2024/01/17 03:06:45;;;;;;;;;;;;;;;9.04;55.79;100057.47;5061929;28;19912;-80
2024/01/17 03:09:37;;;;;;;;;;;;;;;9.12;55.30;100071.00;5062841;28;19916;-80
2024/01/17 03:12:29;;;;;;;;;;;;;;;8.96;56.22;100061.75;5078334;28;19916;-80
2024/01/17 03:15:21;;;;;;;;;;;;;;;9.08;56.07;100066.56;5075516;28;19912;-80
2024/01/17 03:18:13;;;;;;;;;;;;;;;8.90;57.97;100069.25;5073820;28;19916;-80
2024/01/17 03:21:06;;;;;;;;;;;;;;;8.75;59.32;100071.66;5077497;28;19912;-79
2024/01/17 03:23:58;;;;;;;;;;;;;;;8.57;60.32;100066.25;5074766;28;19921;-80
2024/01/17 03:26:50;;;;;;;;;;;;;;;8.28;61.83;100068.69;5072979;28;19913;-79
2024/01/17 03:29:42;;;;;;;;;;;;;;;8.29;62.12;100062.16;5076614;28;19912;-79
2024/01/17 03:32:32;;;;;;;;;;;;;;;8.28;62.23;100057.09;5074367;28;19912;-79
2024/01/17 03:35:24;;;;;;;;;;;;;;;8.30;62.53;100049.44;5071838;28;19916;-78
2024/01/17 03:38:16;;;;;;;;;;;;;;;8.32;62.34;100050.75;5075726;28;19912;-80
2024/01/17 03:41:08;;;;;;;;;;;;;;;8.25;62.95;100047.66;5073301;28;19921;-79
2024/01/17 03:44:00;;;;;;;;;;;;;;;8.32;62.84;100048.03;5068081;28;19916;-79
2024/01/17 03:46:52;;;;;;;;;;;;;;;8.21;63.24;100051.31;5074504;28;19913;-79
2024/01/17 03:49:44;;;;;;;;;;;;;;;8.23;63.44;100046.41;5072547;28;20296;-79
2024/01/17 03:52:33;;;;;;;;;;;;;;;8.05;64.47;100029.31;5076072;28;19920;-80
2024/01/17 03:55:25;;;;;;;;;;;;;;;8.00;64.21;100030.25;5073497;28;19912;-80
2024/01/17 03:58:17;;;;;;;;;;;;;;;7.85;65.38;100017.16;5071330;28;19913;-80
2024/01/17 04:01:09;;;;;;;;;;;;;;;7.81;65.46;100012.69;5075024;28;19916;-80
2024/01/17 04:04:01;;;;;;;;;;;;;;;7.88;65.21;100011.09;5057604;28;19916;-80
2024/01/17 04:06:53;;;;;;;;;;;;;;;7.90;65.15;100008.09;5073907;28;19916;-80
2024/01/17 04:09:45;;;;;;;;;;;;;;;8.00;65.60;100008.59;5074141;28;19913;-81
2024/01/17 04:12:37;;;;;;;;;;;;;;;7.98;65.40;99997.28;5062636;28;20305;-80
2024/01/17 04:15:29;;;;;;;;;;;;;;;7.94;65.64;99992.81;5053960;28;20003;-79
2024/01/17 04:18:21;;;;;;;;;;;;;;;7.84;66.35;99985.78;5053521;28;20393;-80
2024/01/17 04:21:17;;;;;;;;;;;;;;;7.85;65.94;99973.84;5057098;28;19917;-80
2024/01/17 04:24:09;;;;;;;;;;;;;;;8.11;64.93;99965.78;5054337;28;19921;-80
2024/01/17 04:27:02;;;;;;;;;;;;;;;7.92;66.18;99954.44;5052439;28;19912;-80
2024/01/17 04:29:54;;;;;;;;;;;;;;;7.81;66.38;99967.47;5055944;28;19923;-79
2024/01/17 04:32:46;;;;;;;;;;;;;;;7.84;66.92;99960.63;5053857;28;20392;-80
2024/01/17 04:35:38;;;;;;;;;;;;;;;7.77;66.88;99944.88;5051152;28;19913;-78
2024/01/17 04:38:27;;;;;;;;;;;;;;;7.75;67.19;99944.38;5054990;28;19935;-80
2024/01/17 04:41:18;;;;;;;;;;;;;;;7.79;67.44;99941.81;5053042;28;20293;-79
2024/01/17 04:44:10;;;;;;;;;;;;;;;7.82;66.87;99939.31;5056350;28;19921;-79
2024/01/17 04:47:02;;;;;;;;;;;;;;;7.81;67.36;99928.78;5054551;28;19912;-79
2024/01/17 04:49:51;;;;;;;;;;;;;;;7.73;67.44;99925.72;5052424;28;19916;-79
2024/01/17 04:52:43;;;;;;;;;;;;;;;7.73;67.89;99916.81;5056203;28;19913;-79
2024/01/17 04:55:35;;;;;;;;;;;;;;;7.91;67.28;99923.06;5053232;28;19916;-80
2024/01/17 04:58:27;;;;;;;;;;;;;;;7.99;67.23;99931.19;5051820;28;19913;-79
2024/01/17 05:01:19;;;;;;;;;;;;;;;7.92;66.90;99930.88;5055567;28;19913;-79
2024/01/17 05:04:11;;;;;;;;;;;;;;;7.99;66.68;99922.25;5052584;28;19921;-80
2024/01/17 05:07:03;;;;;;;;;;;;;;;7.91;67.12;99934.69;5050654;28;19916;-80
2024/01/17 05:09:55;;;;;;;;;;;;;;;7.86;67.86;99934.03;5056191;28;19916;-80
2024/01/17 05:12:47;;;;;;;;;;;;;;;8.06;66.57;99938.84;5056162;28;20381;-80
2024/01/17 05:15:39;;;;;;;;;;;;;;;7.83;67.42;99949.00;5057626;28;20378;-80
2024/01/17 05:18:31;;;;;;;;;;;;;;;7.76;67.81;99956.00;5063757;28;19916;-79
2024/01/17 05:21:23;;;;;;;;;;;;;;;7.69;68.00;99949.13;5062281;28;19917;-79
2024/01/17 05:24:15;;;;;;;;;;;;;;;7.63;68.60;99928.72;5074025;28;19916;-80
2024/01/17 05:27:07;;;;;;;;;;;;;;;7.74;68.01;99923.81;5056778;28;20369;-80
2024/01/17 05:29:59;;;;;;;;;;;;;;;7.97;67.44;99941.56;5055924;28;20373;-79
2024/01/17 05:32:51;;;;;;;;;;;;;;;8.00;67.50;99940.09;5058620;28;19916;-79
2024/01/17 05:35:43;;;;;;;;;;;;;;;7.98;67.82;99945.03;5075642;28;19916;-80
2024/01/17 05:38:35;;;;;;;;;;;;;;;7.77;68.37;99944.88;5079648;28;19912;-80
2024/01/17 05:41:30;;;;;;;;;;;;;;;7.73;69.20;99943.88;5067593;28;19912;-79
2024/01/17 05:44:20;;;;;;;;;;;;;;;7.64;69.97;99957.38;5068042;28;20376;-80
2024/01/17 05:47:12;;;;;;;;;;;;;;;7.70;69.90;99941.81;5066844;28;19916;-79
2024/01/17 05:50:04;;;;;;;;;;;;;;;7.81;69.68;99936.91;5063361;28;20325;-80
2024/01/17 05:52:57;;;;;;;;;;;;;;;7.68;69.76;99935.91;5069055;28;19913;-83
2024/01/17 05:55:49;;;;;;;;;;;;;;;7.68;69.98;99942.13;5073012;28;20395;-80
2024/01/17 05:58:38;;;;;;;;;;;;;;;7.64;70.13;99934.94;5075455;28;19913;-80
2024/01/17 06:01:29;;;;;;;;;;;;;;;7.55;70.12;99953.88;5067549;28;19916;-80
2024/01/17 06:04:21;;;;;;;;;;;;;;;7.54;71.04;99936.03;5069131;28;19920;-80
2024/01/17 06:07:13;;;;;;;;;;;;;;;7.71;69.93;99946.13;5074679;28;19931;-81
2024/01/17 06:10:12;;;;;;;;;;;;;;;7.65;70.62;99944.66;5078316;28;20293;-80
2024/01/17 06:13:04;;;;;;;;;;;;;;;7.70;70.36;99939.91;5075062;28;19917;-79
2024/01/17 06:15:53;;;;;;;;;;;;;;;7.71;70.56;99943.41;5075708;28;19913;-80
2024/01/17 06:18:45;;;;;;;;;;;;;;;7.70;70.37;99945.31;5077071;28;19912;-79
2024/01/17 06:21:37;;;;;;;;;;;;;;;7.69;70.58;99946.44;5074115;28;19916;-78
2024/01/17 06:24:29;;;;;;;;;;;;;;;8.00;69.56;99950.94;5080267;28;19916;-77
2024/01/17 06:27:22;;;;;;;;;;;;;;;7.63;69.96;99949.59;5070980;28;19913;-80
2024/01/17 06:30:14;;;;;;;;;;;;;;;7.66;69.89;99968.72;5058431;28;19916;-79
2024/01/17 06:33:06;;;;;;;;;;;;;;;6.72;73.20;99974.44;5071124;28;20625;-80
2024/01/17 06:35:58;;;;;;;;;;;;;;;7.01;72.60;99970.50;5066453;28;20308;-78
2024/01/17 06:38:50;;;;;;;;;;;;;;;6.77;73.49;99974.31;5079548;28;19912;-78
2024/01/17 06:41:42;;;;;;;;;;;;;;;6.68;74.41;99962.66;5077172;28;19912;-79
2024/01/17 06:44:34;;;;;;;;;;;;;;;6.90;73.18;99955.63;5068623;28;19920;-79
2024/01/17 06:47:23;;;;;;;;;;;;;;;6.98;72.89;99960.28;5058018;28;19920;-79
2024/01/17 06:50:14;;;;;;;;;;;;;;;6.92;73.13;99966.91;5058413;28;19917;-79
2024/01/17 06:53:06;;;;;;;;;;;;;;;6.90;73.70;99979.97;5063906;28;19912;-78
2024/01/17 06:56:03;;;;;;;;;;;;;;;6.50;75.79;99979.84;5060922;28;19920;-80
2024/01/17 06:58:55;;;;;;;;;;;;;;;6.20;76.60;99973.22;5065605;28;20281;-78
2024/01/17 07:01:42;;;;;;;;;;;;;;;6.59;74.41;99964.50;5063201;28;19913;-79
2024/01/17 07:04:35;;;;;;;;;;;;;;;6.13;74.15;99977.44;5070357;28;19916;-79
2024/01/17 07:07:27;;;;;;;;;;;;;;;6.27;74.91;99964.72;5061209;28;20373;-79
2024/01/17 07:10:16;;;;;;;;;;;;;;;6.35;75.07;99980.16;5076886;28;19912;-80
2024/01/17 07:13:08;;;;;;;;;;;;;;;6.21;74.80;99974.81;5057953;28;19917;-80
2024/01/17 07:16:00;;;;;;;;;;;;;;;6.29;73.24;99982.22;5072062;28;19912;-80
2024/01/17 07:18:53;;;;;;;;;;;;;;;5.87;75.75;99985.28;5067267;28;19913;-80
2024/01/17 07:21:45;;;;;;;;;;;;;;;6.05;76.35;99984.34;5061240;28;19916;-80
2024/01/17 07:24:35;;;;;;;;;;;;;;;5.99;74.69;99972.09;5068036;28;19916;-79
2024/01/17 07:27:27;;;;;;;;;;;;;;;5.84;76.18;99985.88;5062720;28;20316;-79
2024/01/17 07:30:19;;;;;;;;;;;;;;;5.96;74.81;99980.78;5054960;28;20329;-79
2024/01/17 07:33:10;;;;;;;;;;;;;;;6.31;74.49;99985.38;5061061;28;19913;-80
2024/01/17 07:36:02;;;;;;;;;;;;;;;6.09;75.55;99989.97;5059508;28;20377;-80
2024/01/17 07:38:52;;;;;;;;;;;;;;;6.35;74.88;99986.38;5055941;28;20392;-79
2024/01/17 07:41:42;;;;;;;;;;;;;;;6.49;74.02;99985.53;5065877;28;19921;-80
2024/01/17 07:44:33;;;;;;;;;;;;;;;6.51;73.39;99981.41;5065331;28;19916;-80
2024/01/17 07:47:25;;;;;;;;;;;;;;;6.66;72.90;99989.16;5054537;28;19916;-80
2024/01/17 07:50:15;;;;;;;;;;;;;;;6.80;72.20;99989.13;5057654;28;19912;-80
2024/01/17 07:53:07;;;;;;;;;;;;;;;6.68;72.41;99972.66;5053502;28;20381;-80
2024/01/17 07:55:58;;;;;;;;;;;;;;;6.42;73.11;99978.66;5060024;28;19913;-80
2024/01/17 07:58:50;;;;;;;;;;;;;;;6.55;72.48;99974.31;5055148;28;19917;-79
2024/01/17 08:01:41;;;;;;;;;;;;;;;6.60;73.36;99981.50;5056847;28;19912;-78
2024/01/17 08:04:31;;;;;;;;;;;;;;;6.79;72.22;99965.91;5055920;28;19916;-79
2024/01/17 08:07:24;;;;;;;;;;;;;;;6.60;72.92;99968.81;5052807;28;19917;-79
2024/01/17 08:10:16;;;;;;;;;;;;;;;6.64;72.53;99958.16;5051803;28;19924;-78
2024/01/17 08:13:09;;;;;;;;;;;;;;;6.70;71.88;99960.44;5056539;28;19931;-79
2024/01/17 08:15:59;;;;;;;;;;;;;;;6.60;72.45;99949.09;5046419;28;19916;-79
2024/01/17 08:18:53;;;;;;;;;;;;;;;6.62;72.52;99941.47;5056324;28;19913;-78
2024/01/17 08:21:43;;;;;;;;;;;;;;;6.64;72.35;99944.66;5054434;28;19917;-77
2024/01/17 08:24:30;;;;;;;;;;;;;;;6.48;73.06;99936.13;5051668;28;19921;-79
2024/01/17 08:27:22;;;;;;;;;;;;;;;6.62;72.36;99931.47;5056231;28;20392;-78
2024/01/17 08:30:14;;;;;;;;;;;;;;;6.66;72.30;99918.94;5053651;28;19916;-78
2024/01/17 08:33:06;;;;;;;;;;;;;;;6.64;72.87;99909.56;5052523;28;19916;-78
2024/01/17 08:35:58;;;;;;;;;;;;;;;6.54;73.62;99897.09;5052307;28;19912;-78
2024/01/17 08:38:51;;;;;;;;;;;;;;;6.59;73.59;99896.16;5052763;28;19916;-78
2024/01/17 08:41:45;;;;;;;;;;;;;;;6.66;73.69;99891.09;5056283;28;19912;-78
2024/01/17 08:44:35;;;;;;;;;;;;;;;6.53;73.92;99882.00;5052995;28;19920;-78
2024/01/17 08:47:27;;;;;;;;;;;;;;;6.54;74.45;99885.50;5065614;28;19916;-79
2024/01/17 08:50:19;;;;;;;;;;;;;;;6.63;74.39;99886.34;5056815;28;20405;-78
2024/01/17 08:53:11;;;;;;;;;;;;;;;6.45;74.80;99888.13;5053312;28;20389;-80
2024/01/17 08:56:04;;;;;;;;;;;;;;;6.47;75.61;99883.22;5050570;28;19913;-77
2024/01/17 08:58:56;;;;;;;;;;;;;;;5.94;76.76;99894.72;5054997;28;19917;-78
2024/01/17 09:01:48;;;;;;;;;;;;;;;6.17;75.91;99889.38;5052593;28;19913;-78
2024/01/17 09:04:40;;;;;;;;;;;;;;;6.25;76.17;99894.00;5069178;28;19916;-79
2024/01/17 09:07:33;;;;;;;;;;;;;;;6.50;76.52;99896.13;5062135;28;20288;-76
2024/01/17 09:10:25;;;;;;;;;;;;;;;6.39;76.48;99892.88;5060024;28;19916;-78
2024/01/17 09:13:17;;;;;;;;;;;;;;;6.21;77.26;99884.94;5061737;28;19917;-77
2024/01/17 09:16:09;;;;;;;;;;;;;;;6.30;78.29;99889.28;5055346;28;19920;-77
2024/01/17 09:18:58;;;;;;;;;;;;;;;6.25;77.44;99888.63;5054320;28;19913;-76
2024/01/17 09:21:50;;;;;;;;;;;;;;;6.17;77.37;99883.97;5058810;28;19938;-78
2024/01/17 09:24:39;;;;;;;;;;;;;;;6.34;77.78;99886.81;5055082;28;19916;-78
2024/01/17 09:27:31;;;;;;;;;;;;;;;6.34;77.80;99886.81;5073083;28;19912;-77
2024/01/17 09:30:23;;;;;;;;;;;;;;;6.47;77.20;99888.63;5072627;28;19917;-78
2024/01/17 09:33:13;;;;;;;;;;;;;;;6.47;77.58;99887.81;5054634;28;19919;-78
2024/01/17 09:36:05;;;;;;;;;;;;;;;6.53;76.91;99890.09;5062652;28;19917;-78
2024/01/17 09:38:57;;;;;;;;;;;;;;;6.43;77.63;99893.06;5056362;28;19917;-77
2024/01/17 09:41:49;;;;;;;;;;;;;;;6.37;78.01;99905.06;5053738;28;19921;-77
2024/01/17 09:44:41;;;;;;;;;;;;;;;6.23;79.02;99912.44;5057167;28;20390;-76
2024/01/17 09:47:36;;;;;;;;;;;;;;;6.28;78.83;99910.41;5044994;28;19912;-78
2024/01/17 09:50:26;;;;;;;;;;;;;;;6.09;79.34;99917.91;5071324;28;19916;-77
2024/01/17 09:53:19;;;;;;;;;;;;;;;6.15;79.31;99921.25;5056499;28;19923;-77
2024/01/17 09:56:12;;;;;;;;;;;;;;;6.19;79.68;99928.47;5056062;28;19912;-78
2024/01/17 09:59:05;;;;;;;;;;;;;;;6.13;79.77;99926.16;5061743;28;19916;-77
2024/01/17 10:01:57;;;;;;;;;;;;;;;6.07;80.52;99919.28;5061597;28;19913;-77
2024/01/17 10:04:49;;;;;;;;;;;;;;;5.91;80.61;99925.03;5061693;28;19920;-76
2024/01/17 10:07:39;;;;;;;;;;;;;;;5.99;81.71;99913.50;5054859;28;20289;-76
2024/01/17 10:10:31;;;;;;;;;;;;;;;6.01;81.69;99911.31;5056688;28;19912;-76
2024/01/17 10:13:20;;;;;;;;;;;;;;;6.02;82.09;99898.63;5060073;28;19936;-77
2024/01/17 10:16:12;;;;;;;;;;;;;;;6.00;82.00;99892.72;5056743;28;20420;-76
2024/01/17 10:19:04;;;;;;;;;;;;;;;5.86;82.42;99876.53;5058674;28;19921;-76
2024/01/17 10:21:56;;;;;;;;;;;;;;;6.09;83.32;99868.50;5059406;28;19913;-76
2024/01/17 10:24:53;;;;;;;;;;;;;;;6.07;81.55;99865.31;5056712;28;20486;-76
2024/01/17 10:27:45;;;;;;;;;;;;;;;5.93;82.73;99847.28;5055781;28;20316;-76
2024/01/17 10:30:35;;;;;;;;;;;;;;;6.10;83.13;99840.41;5078352;28;19920;-76
2024/01/17 10:33:27;;;;;;;;;;;;;;;6.41;81.64;99839.34;5056555;28;19912;-76
2024/01/17 10:36:17;;;;;;;;;;;;;;;6.65;80.88;99840.91;5055561;28;20698;-76
2024/01/17 10:39:06;;;;;;;;;;;;;;;6.61;80.16;99829.13;5057918;28;19912;-76
2024/01/17 10:41:58;;;;;;;;;;;;;;;6.61;80.11;99826.41;5063521;28;19913;-76
2024/01/17 10:44:50;;;;;;;;;;;;;;;6.63;80.01;99829.63;5062654;28;19921;-76
2024/01/17 10:47:42;;;;;;;;;;;;;;;6.64;79.80;99832.00;5057498;28;19913;-76
2024/01/17 10:50:34;;;;;;;;;;;;;;;6.46;79.13;99824.91;5067055;28;19920;-77
2024/01/17 10:53:26;;;;;;;;;;;;;;;6.64;80.13;99829.31;5059380;28;19913;-76
2024/01/17 10:56:19;;;;;;;;;;;;;;;6.78;79.27;99813.78;5056585;28;19913;-77
2024/01/17 10:59:07;;;;;;;;;;;;;;;7.01;78.25;99802.91;5055598;28;19920;-77
2024/01/17 11:02:01;;;;;;;;;;;;;;;7.28;77.00;99792.63;5059353;28;19913;-78
2024/01/17 11:04:58;;;;;;;;;;;;;;;7.12;76.92;99793.38;5056300;28;20397;-77
2024/01/17 11:07:50;;;;;;;;;;;;;;;7.47;77.10;99788.81;5059501;28;19932;-78
2024/01/17 11:10:42;;;;;;;;;;;;;;;7.64;75.75;99770.69;5073283;28;19913;-77
2024/01/17 11:13:35;;;;;;;;;;;;;;;7.98;74.79;99767.16;5076188;28;19912;-78
2024/01/17 11:16:23;;;;;;;;;;;;;;;8.03;74.16;99763.50;5075697;28;19920;-77
2024/01/17 11:19:14;;;;;;;;;;;;;;;7.89;73.99;99760.19;5060823;28;19912;-78
2024/01/17 11:22:07;;;;;;;;;;;;;;;7.54;74.89;99764.81;5068388;28;19912;-77
2024/01/17 11:25:01;;;;;;;;;;;;;;;7.17;76.18;99763.50;5058138;28;19916;-77
2024/01/17 11:28:03;;;;;;;;;;;;;;;6.47;78.93;99763.59;5066879;28;19913;-77
2024/01/17 11:31:11;;;;;;;;;;;;;;;6.86;78.76;99767.09;5069379;28;19920;-78
2024/01/17 11:34:03;;;;;;;;;;;;;;;7.30;77.25;99773.41;5065645;28;20373;-77
2024/01/17 11:36:55;;;;;;;;;;;;;;;7.32;75.36;99777.34;5059666;28;19916;-78
2024/01/17 11:39:47;;;;;;;;;;;;;;;6.96;77.15;99762.53;5058146;28;19923;-78
2024/01/17 11:42:39;;;;;;;;;;;;;;;7.17;76.63;99747.28;5055146;28;19912;-78
2024/01/17 11:45:31;;;;;;;;;;;;;;;7.28;75.61;99726.94;5056680;28;20392;-77
2024/01/17 11:48:26;;;;;;;;;;;;;;;7.24;73.87;99715.16;5056810;28;19912;-77
2024/01/17 11:51:20;;;;;;;;;;;;;;;7.05;74.93;99712.78;5060140;28;19913;-78
2024/01/17 11:54:14;;;;;;;;;;;;;;;7.22;76.85;99710.06;5058043;28;19917;-77
2024/01/17 11:57:05;;;;;;;;;;;;;;;7.27;75.02;99709.13;5056269;28;19913;-77
2024/01/17 12:00:16;;;;;;;;;;;;;;;7.60;75.40;99717.56;5059543;28;20293;-76
2024/01/17 12:03:08;;;;;;;;;;;;;;;7.23;74.40;99711.66;5056244;28;19920;-77
2024/01/17 12:06:00;;;;;;;;;;;;;;;7.48;76.17;99696.56;5055512;28;19916;-77
2024/01/17 12:08:52;;;;;;;;;;;;;;;7.45;75.54;99688.28;5057994;28;19917;-77
2024/01/17 12:11:42;;;;;;;;;;;;;;;7.71;74.62;99681.75;5055805;28;19935;-78
2024/01/17 12:14:35;;;;;;;;;;;;;;;7.93;73.39;99674.50;5067605;28;20320;-78
2024/01/17 12:17:27;;;;;;;;;;;;;;;7.74;74.20;99672.97;5064363;28;19912;-77
2024/01/17 12:20:15;;;;;;;;;;;;;;;7.66;74.30;99676.50;5059217;28;19917;-78
2024/01/17 12:23:08;;;;;;;;;;;;;;;7.53;75.41;99668.53;5062822;28;19920;-77
2024/01/17 12:26:00;;;;;;;;;;;;;;;7.41;74.58;99658.41;5065753;28;19917;-77
2024/01/17 12:28:52;;;;;;;;;;;;;;;7.02;75.59;99645.81;5076243;28;19917;-77
2024/01/17 12:31:47;;;;;;;;;;;;;;;7.17;76.76;99639.13;5065309;28;19920;-78
2024/01/17 12:34:39;;;;;;;;;;;;;;;7.18;77.06;99636.13;5066023;28;19913;-78
2024/01/17 12:37:31;;;;;;;;;;;;;;;7.35;77.31;99611.00;5070523;28;19913;-77
2024/01/17 12:40:23;;;;;;;;;;;;;;;6.93;77.69;99609.09;5070586;28;19912;-78
2024/01/17 12:43:15;;;;;;;;;;;;;;;6.82;78.91;99595.91;5067587;28;19942;-77
2024/01/17 12:46:07;;;;;;;;;;;;;;;7.42;78.74;99600.47;5063083;28;19916;-77
2024/01/17 12:48:59;;;;;;;;;;;;;;;7.33;76.61;99588.88;5061114;28;19912;-77
2024/01/17 12:51:51;;;;;;;;;;;;;;;7.15;77.41;99587.31;5067079;28;19912;-77
2024/01/17 12:54:43;;;;;;;;;;;;;;;6.97;78.03;99597.34;5063679;28;19916;-77
2024/01/17 12:57:35;;;;;;;;;;;;;;;7.03;79.03;99592.56;5055837;28;19917;-77
2024/01/17 13:00:24;;;;;;;;;;;;;;;7.04;79.03;99591.47;5058219;28;19913;-77
2024/01/17 13:03:16;;;;;;;;;;;;;;;7.10;78.69;99579.38;5055610;28;19913;-77
2024/01/17 13:06:08;;;;;;;;;;;;;;;7.25;78.85;99576.97;5060687;28;20385;-77
2024/01/17 13:09:13;;;;;;;;;;;;;;;7.12;78.35;99579.84;5057086;28;19913;-77
2024/01/17 13:12:05;;;;;;;;;;;;;;;6.95;79.50;99574.47;5056130;28;19917;-77
2024/01/17 13:15:00;;;;;;;;;;;;;;;7.22;78.83;99566.78;5057909;28;19912;-77
2024/01/17 13:17:52;;;;;;;;;;;;;;;7.24;77.71;99561.84;5055209;28;19913;-77
2024/01/17 13:20:44;;;;;;;;;;;;;;;6.98;79.39;99549.47;5053080;28;19916;-76
2024/01/17 13:23:34;;;;;;;;;;;;;;;7.17;77.49;99555.34;5067358;28;19923;-78
2024/01/17 13:26:25;;;;;;;;;;;;;;;7.18;77.48;99554.22;5053898;28;19925;-76
2024/01/17 13:29:17;;;;;;;;;;;;;;;7.16;77.10;99548.38;5061476;28;20301;-76
2024/01/17 13:32:12;;;;;;;;;;;;;;;6.99;78.13;99545.69;5068470;28;19913;-76
2024/01/17 13:35:04;;;;;;;;;;;;;;;7.08;78.18;99543.75;5057363;28;19912;-77
2024/01/17 13:37:56;;;;;;;;;;;;;;;6.89;79.03;99538.69;5061101;28;19913;-77
2024/01/17 13:40:48;;;;;;;;;;;;;;;6.94;78.82;99543.94;5059299;28;19912;-76
2024/01/17 13:43:37;;;;;;;;;;;;;;;6.78;79.85;99538.22;5056911;28;19913;-77
2024/01/17 13:46:29;;;;;;;;;;;;;;;6.75;79.83;99524.56;5057037;28;19921;-78
2024/01/17 13:49:24;;;;;;;;;;;;;;;6.80;78.85;99527.91;5058262;28;19913;-77
2024/01/17 13:52:20;;;;;;;;;;;;;;;6.80;79.86;99529.81;5062055;28;20140;-77
2024/01/17 13:55:12;;;;;;;;;;;;;;;6.74;79.80;99534.56;5058841;28;19920;-78
2024/01/17 13:58:04;;;;;;;;;;;;;;;6.73;80.57;99535.69;5057280;28;19917;-77
2024/01/17 14:00:59;;;;;;;;;;;;;;;6.61;80.50;99548.22;5061093;28;19921;-77
2024/01/17 14:03:51;;;;;;;;;;;;;;;6.65;80.07;99551.91;5057888;28;19917;-78
2024/01/17 14:06:43;;;;;;;;;;;;;;;6.43;81.37;99563.63;5058609;28;19916;-76
2024/01/17 14:09:37;;;;;;;;;;;;;;;6.52;81.68;99564.44;5059388;28;19913;-77
2024/01/17 14:12:31;;;;;;;;;;;;;;;6.52;81.20;99556.31;5055070;28;19916;-78
2024/01/17 14:15:23;;;;;;;;;;;;;;;6.63;80.55;99549.50;5056965;28;19913;-77
2024/01/17 14:18:17;;;;;;;;;;;;;;;6.70;80.41;99551.75;5056566;28;19917;-78
2024/01/17 14:21:09;;;;;;;;;;;;;;;6.88;79.99;99564.13;5054020;28;19916;-78
2024/01/17 14:24:02;;;;;;;;;;;;;;;6.77;79.96;99566.34;5056915;28;19912;-78
2024/01/17 14:26:52;;;;;;;;;;;;;;;6.71;79.45;99577.63;5056240;28;19916;-77
2024/01/17 14:29:44;;;;;;;;;;;;;;;6.86;79.23;99575.25;5059693;28;19913;-77
2024/01/17 14:32:36;;;;;;;;;;;;;;;6.77;78.60;99571.75;5057327;28;19920;-75
2024/01/17 14:35:27;;;;;;;;;;;;;;;6.79;78.77;99568.72;5054597;28;19913;-78
2024/01/17 14:38:19;;;;;;;;;;;;;;;6.79;79.07;99558.72;5059413;28;19913;-78
2024/01/17 14:41:11;;;;;;;;;;;;;;;6.78;78.72;99557.13;5055942;28;20297;-77
2024/01/17 14:44:04;;;;;;;;;;;;;;;6.82;79.53;99549.19;5053102;28;19913;-77
2024/01/17 14:46:53;;;;;;;;;;;;;;;6.81;81.25;99552.97;5057498;28;19924;-78
2024/01/17 14:49:42;;;;;;;;;;;;;;;6.93;79.54;99552.34;5055354;28;19928;-77
2024/01/17 14:52:38;;;;;;;;;;;;;;;6.71;78.99;99551.41;5058723;28;20388;-77
2024/01/17 14:55:30;;;;;;;;;;;;;;;6.73;79.19;99551.88;5056086;28;19913;-77
2024/01/17 14:58:20;;;;;;;;;;;;;;;6.84;79.07;99558.56;5054222;28;19916;-77
2024/01/17 15:01:11;;;;;;;;;;;;;;;6.85;79.04;99557.47;5057867;28;19916;-77
2024/01/17 15:04:03;;;;;;;;;;;;;;;6.91;78.36;99543.78;5055407;28;19913;-77